CheckWX is a tool to help pilots better visualize weather data.  It is not intended as a substitute for an official pre-flight weather briefing.

11:21:20 UTC

DAAD METAR
Bou Saada Airport
Algeria
Current

21 mins ago

DAAD 041100Z 05003KT 9999 FEW026 17/10 Q1020
Observed
Apr-4 @ 11:00 UTC
Wind
  • 050° at 3 KTS
Visibility
10,000+ meters
Flight Rules
VFR
Cloud Levels
  • Few at 2,600' AGL
Temperature
17°C / 63°F
Dewpoint
10°C / 50°F
Humidity
64%
Altimeter
30.12" Hg
Pressure
1019.92 hPa
Previous

1 hour ago

DAAD 041000Z 01005KT 9999 FEW026 15/08 Q1020
Observed
Apr-4 @ 10:00 UTC
Wind
  • 010° at 5 KTS
Visibility
10,000+ meters
Flight Rules
VFR
Cloud Levels
  • Few at 2,600' AGL
Temperature
15°C / 59°F
Dewpoint
C / 46°F
Humidity
63%
Altimeter
30.12" Hg
Pressure
1019.92 hPa
Previous

2 hours ago

DAAD 040900Z 36006KT 9999 FEW026 14/08 Q1020
Observed
Apr-4 @ 09:00 UTC
Wind
  • 360° at 6 KTS
Visibility
10,000+ meters
Flight Rules
VFR
Cloud Levels
  • Few at 2,600' AGL
Temperature
14°C / 57°F
Dewpoint
C / 46°F
Humidity
67%
Altimeter
30.12" Hg
Pressure
1019.92 hPa